createdAt,value
2018-09-11T00:00:41.629Z,101748.27
2018-09-11T00:03:14.997Z,101744.63
2018-09-11T00:08:54.912Z,101741.20
2018-09-11T00:11:29.158Z,101735.42
2018-09-11T00:14:03.181Z,101740.52
2018-09-11T00:16:38.299Z,101735.02
2018-09-11T00:19:12.224Z,101735.03
2018-09-11T00:21:44.569Z,101740.74
2018-09-11T00:26:57.008Z,101733.41
2018-09-11T00:29:35.704Z,101728.53
2018-09-11T00:32:08.197Z,101725.51
2018-09-11T00:34:39.860Z,101722.45
2018-09-11T00:37:18.745Z,101710.91
2018-09-11T00:39:54.185Z,101706.75
2018-09-11T00:42:25.065Z,101699.23
2018-09-11T00:44:58.158Z,101685.96
2018-09-11T00:47:30.712Z,101689.39
2018-09-11T00:50:03.761Z,101681.81
2018-09-11T00:52:36.917Z,101678.19
2018-09-11T00:55:10.916Z,101671.52
2018-09-11T00:57:42.211Z,101674.34
2018-09-11T01:00:13.570Z,101677.05
2018-09-11T01:02:43.881Z,101679.62
2018-09-11T01:05:15.702Z,101686.42
2018-09-11T01:07:48.720Z,101694.15
2018-09-11T01:10:21.344Z,101704.28
2018-09-11T01:12:52.822Z,101699.77
2018-09-11T01:15:24.389Z,101696.98
2018-09-11T01:17:54.709Z,101696.98
2018-09-11T01:20:26.733Z,101688.17
2018-09-11T01:22:57.199Z,101693.58
2018-09-11T01:25:29.494Z,101703.34
2018-09-11T01:27:59.407Z,101706.95
2018-09-11T01:30:29.502Z,101703.70
2018-09-11T01:32:59.996Z,101709.96
2018-09-11T01:35:30.299Z,101715.30
2018-09-11T01:38:01.666Z,101718.72
2018-09-11T01:40:33.700Z,101723.49
2018-09-11T01:43:04.112Z,101713.08
2018-09-11T01:45:34.471Z,101721.50
2018-09-11T01:48:05.873Z,101709.61
2018-09-11T01:50:35.838Z,101705.83
2018-09-11T01:53:06.059Z,101707.09
2018-09-11T01:55:37.315Z,101710.75
2018-09-11T01:58:08.811Z,101717.86
2018-09-11T02:00:38.831Z,101713.08
2018-09-11T02:03:09.419Z,101710.29
2018-09-11T02:05:39.579Z,101708.36
2018-09-11T02:08:10.625Z,101713.08
2018-09-11T02:10:41.352Z,101712.09
2018-09-11T02:13:13.022Z,101712.05
2018-09-11T02:15:45.531Z,101701.87
2018-09-11T02:18:18.086Z,101682.45
2018-09-11T02:20:49.765Z,101670.85
2018-09-11T02:23:20.041Z,101661.48
2018-09-11T02:25:51.250Z,101662.81
2018-09-11T02:28:23.057Z,101655.98
2018-09-11T02:30:54.818Z,101653.04
2018-09-11T02:33:25.245Z,101649.05
2018-09-11T02:35:55.926Z,101650.77
2018-09-11T02:38:27.938Z,101637.80
2018-09-11T02:41:01.031Z,101642.25
2018-09-11T02:43:31.282Z,101645.36
2018-09-11T02:46:03.314Z,101649.41
2018-09-11T02:48:34.045Z,101648.19
2018-09-11T02:51:05.395Z,101643.48
2018-09-11T02:53:40.566Z,101636.48
2018-09-11T02:56:11.558Z,101628.88
2018-09-11T02:58:42.824Z,101632.39
2018-09-11T03:01:14.326Z,101636.31
2018-09-11T03:03:44.888Z,101631.45
2018-09-11T03:06:21.575Z,101629.28
2018-09-11T03:08:53.215Z,101643.30
2018-09-11T03:11:23.356Z,101635.77
2018-09-11T03:13:53.760Z,101641.98
2018-09-11T03:16:25.931Z,101643.87
2018-09-11T03:18:56.381Z,101645.45
2018-09-11T03:21:30.867Z,101640.95
2018-09-11T03:24:10.343Z,101642.39
2018-09-11T03:26:42.811Z,101639.51
2018-09-11T03:29:15.303Z,101634.69
2018-09-11T03:31:46.197Z,101634.60
2018-09-11T03:34:17.150Z,101637.48
2018-09-11T03:36:51.220Z,101635.46
2018-09-11T03:39:21.589Z,101632.94
2018-09-11T03:41:52.285Z,101626.98
2018-09-11T03:44:25.330Z,101632.84
2018-09-11T03:46:55.926Z,101622.25
2018-09-11T03:52:41.545Z,101617.88
2018-09-11T03:55:14.217Z,101618.56
2018-09-11T03:57:49.554Z,101614.78
2018-09-11T04:00:20.261Z,101613.83
2018-09-11T04:02:52.051Z,101613.77
2018-09-11T04:05:29.265Z,101611.07
2018-09-11T04:08:06.343Z,101612.51
2018-09-11T04:10:42.808Z,101616.95
2018-09-11T04:13:19.659Z,101600.27
2018-09-11T04:15:54.600Z,101598.52
2018-09-11T04:18:26.456Z,101600.81
2018-09-11T04:21:03.006Z,101605.67
2018-09-11T04:23:38.243Z,101605.84
2018-09-11T04:26:14.213Z,101594.97
2018-09-11T04:28:49.664Z,101600.94
2018-09-11T04:31:21.620Z,101596.58
2018-09-11T04:33:52.048Z,101602.61
2018-09-11T04:36:22.421Z,101602.44
2018-09-11T04:39:01.092Z,101596.70
2018-09-11T04:41:32.546Z,101598.94
2018-09-11T04:44:04.621Z,101598.93
2018-09-11T04:46:35.224Z,101609.02
2018-09-11T04:49:06.343Z,101609.11
2018-09-11T04:51:38.047Z,101607.69
2018-09-11T04:54:09.144Z,101605.22
2018-09-11T04:56:39.361Z,101594.42
2018-09-11T04:59:09.793Z,101582.50
2018-09-11T05:01:41.141Z,101581.30
2018-09-11T05:04:11.719Z,101588.91
2018-09-11T05:06:44.107Z,101587.42
2018-09-11T05:09:14.926Z,101576.79
2018-09-11T05:11:46.747Z,101566.54
2018-09-11T05:14:19.879Z,101565.07
2018-09-11T05:16:51.733Z,101549.22
2018-09-11T05:19:32.615Z,101542.88
2018-09-11T05:22:12.137Z,101551.02
2018-09-11T05:24:43.344Z,101557.95
2018-09-11T05:30:15.058Z,101543.10
2018-09-11T05:32:50.281Z,101540.48
2018-09-11T05:35:24.732Z,101529.17
2018-09-11T05:37:58.549Z,101539.91
2018-09-11T05:40:29.891Z,101540.30
2018-09-11T05:43:01.533Z,101537.83
2018-09-11T05:45:34.225Z,101532.52
2018-09-11T05:48:12.608Z,101541.70
2018-09-11T05:50:44.217Z,101529.17
2018-09-11T05:53:14.492Z,101530.56
2018-09-11T05:58:21.670Z,101518.81
2018-09-11T06:00:54.737Z,101513.50
2018-09-11T06:03:26.761Z,101518.35
2018-09-11T06:06:00.756Z,101505.95
2018-09-11T06:08:32.529Z,101497.00
2018-09-11T06:11:11.563Z,101491.34
2018-09-11T06:13:48.321Z,101492.24
2018-09-11T06:16:30.916Z,101489.45
2018-09-11T06:19:04.160Z,101486.50
2018-09-11T06:21:36.943Z,101473.71
2018-09-11T06:24:10.161Z,101481.73
2018-09-11T06:26:49.089Z,101479.98
2018-09-11T06:32:00.311Z,101458.74
2018-09-11T06:34:32.668Z,101467.42
2018-09-11T06:37:10.125Z,101471.84
2018-09-11T06:39:45.741Z,101468.44
2018-09-11T06:42:18.673Z,101457.84
2018-09-11T06:44:53.588Z,101467.22
2018-09-11T06:47:26.386Z,101471.41
2018-09-11T06:49:58.325Z,101465.48
2018-09-11T06:52:32.667Z,101484.31
2018-09-11T06:55:20.808Z,101479.02
2018-09-11T07:07:41.471Z,101450.20
2018-09-11T07:10:29.914Z,101454.12
2018-09-11T07:13:27.999Z,101460.72
2018-09-11T07:16:02.311Z,101445.97
2018-09-11T07:22:22.542Z,101450.90
2018-09-11T07:25:04.912Z,101445.70
2018-09-11T07:27:46.621Z,101436.88
2018-09-11T07:30:31.986Z,101431.98
2018-09-11T07:33:12.665Z,101437.75
2018-09-11T07:35:56.680Z,101422.31
2018-09-11T07:38:34.912Z,101420.51
2018-09-11T07:41:26.018Z,101417.01
2018-09-11T07:44:11.274Z,101415.65
2018-09-11T07:47:00.212Z,101416.15
2018-09-11T07:49:42.500Z,101403.08
2018-09-11T07:52:22.581Z,101392.95
2018-09-11T07:54:58.814Z,101403.22
2018-09-11T07:57:35.043Z,101403.91
2018-09-11T08:03:02.072Z,101402.28
2018-09-11T08:05:40.574Z,101400.05
2018-09-11T08:08:17.576Z,101393.97
2018-09-11T08:10:53.665Z,101391.94
2018-09-11T08:13:24.871Z,101404.13
2018-09-11T08:15:55.831Z,101391.84
2018-09-11T08:18:26.132Z,101397.74
2018-09-11T08:20:56.533Z,101416.00
2018-09-11T08:23:26.464Z,101437.00
2018-09-11T08:25:57.314Z,101443.87
2018-09-11T08:28:27.709Z,101451.80
2018-09-11T08:30:58.774Z,101447.33
2018-09-11T08:33:29.894Z,101442.80
2018-09-11T08:36:06.662Z,101437.14
2018-09-11T08:41:20.769Z,101412.38
2018-09-11T08:43:59.195Z,101428.02
2018-09-11T08:46:30.166Z,101425.23
2018-09-11T08:49:07.117Z,101426.07
2018-09-11T08:51:39.083Z,101433.03
2018-09-11T08:54:16.410Z,101443.20
2018-09-11T09:02:55.203Z,101418.75
2018-09-11T09:07:05.363Z,101433.34
2018-09-11T09:09:43.061Z,101424.70
2018-09-11T09:12:14.904Z,101411.02
2018-09-11T09:14:53.801Z,101413.93
2018-09-11T09:17:26.018Z,101426.11
2018-09-11T09:19:58.169Z,101410.42
2018-09-11T09:22:29.099Z,101404.71
2018-09-11T09:27:39.216Z,101398.64
2018-09-11T09:30:11.219Z,101406.45
2018-09-11T09:32:43.425Z,101402.19
2018-09-11T09:35:16.570Z,101405.97
2018-09-11T09:37:47.334Z,101411.18
2018-09-11T09:40:20.755Z,101403.42
2018-09-11T09:42:53.725Z,101397.61
2018-09-11T09:45:29.365Z,101407.02
2018-09-11T09:53:34.483Z,101408.75
2018-09-11T09:56:12.077Z,101409.42
2018-09-11T09:59:04.616Z,101400.03
2018-09-11T10:04:55.222Z,101391.61
2018-09-11T10:13:01.142Z,101404.05
2018-09-11T10:15:40.550Z,101415.83
2018-09-11T10:18:27.706Z,101409.71
2018-09-11T10:23:47.431Z,101417.95
2018-09-11T10:26:28.557Z,101425.67
2018-09-11T10:29:02.366Z,101404.69
2018-09-11T10:31:40.054Z,101401.91
2018-09-11T10:34:15.286Z,101391.08
2018-09-11T10:39:26.443Z,101388.27
2018-09-11T10:41:58.434Z,101382.15
2018-09-11T10:44:32.627Z,101379.63
2018-09-11T10:47:05.150Z,101397.34
2018-09-11T10:49:42.317Z,101395.54
2018-09-11T10:55:14.956Z,101405.98
2018-09-11T10:57:58.472Z,101393.80
2018-09-11T11:00:43.231Z,101390.58
2018-09-11T11:03:15.857Z,101399.39
2018-09-11T11:05:57.051Z,101387.11
2018-09-11T11:08:33.560Z,101388.47
2018-09-11T11:11:16.568Z,101383.80
2018-09-11T11:14:09.688Z,101388.23
2018-09-11T11:20:08.556Z,101392.19
2018-09-11T11:22:41.948Z,101395.67
2018-09-11T11:30:59.806Z,101410.79
2018-09-11T11:33:43.364Z,101404.20
2018-09-11T11:36:22.380Z,101409.23
2018-09-11T11:38:56.564Z,101403.73
2018-09-11T11:41:40.907Z,101405.64
2018-09-11T11:57:25.722Z,101375.27
2018-09-11T11:59:56.587Z,101373.73
2018-09-11T12:02:35.389Z,101383.75
2018-09-11T12:05:28.076Z,101385.00
2018-09-11T12:07:59.394Z,101381.50
2018-09-11T12:10:34.195Z,101384.81
2018-09-11T12:13:07.351Z,101374.08
2018-09-11T12:15:37.509Z,101383.86
2018-09-11T12:18:07.736Z,101383.39
2018-09-11T12:20:37.713Z,101388.50
2018-09-11T12:23:08.749Z,101387.25
2018-09-11T12:25:42.967Z,101391.31
2018-09-11T12:28:13.783Z,101395.27
2018-09-11T12:30:45.539Z,101387.64
2018-09-11T12:33:15.704Z,101402.66
2018-09-11T12:35:47.493Z,101396.95
2018-09-11T12:38:17.833Z,101389.70
2018-09-11T12:40:49.451Z,101387.28
2018-09-11T12:43:19.418Z,101387.57
2018-09-11T12:45:49.524Z,101393.84
2018-09-11T12:48:19.786Z,101394.84
2018-09-11T12:50:52.281Z,101387.46
2018-09-11T12:53:22.975Z,101393.67
2018-09-11T12:55:55.379Z,101395.12
2018-09-11T12:58:26.461Z,101385.53
2018-09-11T13:00:56.348Z,101385.36
2018-09-11T13:03:27.924Z,101380.50
2018-09-11T13:05:58.864Z,101382.61
2018-09-11T13:08:30.599Z,101384.64
2018-09-11T13:11:00.806Z,101382.86
2018-09-11T13:13:32.004Z,101373.08
2018-09-11T13:16:02.103Z,101382.84
2018-09-11T13:18:32.850Z,101388.66
2018-09-11T13:21:03.438Z,101391.73
2018-09-11T13:23:35.196Z,101386.91
2018-09-11T13:26:05.313Z,101390.09
2018-09-11T13:28:36.554Z,101385.85
2018-09-11T13:31:07.280Z,101384.89
2018-09-11T13:33:37.847Z,101392.06
2018-09-11T13:36:08.781Z,101398.59
2018-09-11T13:38:39.664Z,101396.88
2018-09-11T13:41:10.026Z,101401.16
2018-09-11T13:43:41.232Z,101410.47
2018-09-11T13:46:11.278Z,101414.42
2018-09-11T13:48:41.269Z,101418.70
2018-09-11T13:51:13.565Z,101415.98
2018-09-11T13:53:43.793Z,101408.06
2018-09-11T13:56:14.797Z,101409.11
2018-09-11T13:58:46.900Z,101401.58
2018-09-11T14:01:22.869Z,101426.93
2018-09-11T14:03:52.875Z,101413.59
2018-09-11T14:06:23.031Z,101413.88
2018-09-11T14:08:55.193Z,101399.94
2018-09-11T14:11:25.296Z,101407.09
2018-09-11T14:13:55.417Z,101412.70
2018-09-11T14:16:25.538Z,101412.34
2018-09-11T14:18:55.915Z,101417.26
2018-09-11T14:21:26.394Z,101415.70
2018-09-11T14:23:56.413Z,101403.03
2018-09-11T14:26:27.051Z,101409.98
2018-09-11T14:28:57.724Z,101412.34
2018-09-11T14:31:28.864Z,101413.37
2018-09-11T14:33:59.899Z,101415.12
2018-09-11T14:39:12.328Z,101412.31
2018-09-11T14:41:42.502Z,101411.73
2018-09-11T14:44:13.519Z,101401.78
2018-09-11T14:46:44.174Z,101412.31
2018-09-11T14:49:17.539Z,101403.97
2018-09-11T14:51:48.815Z,101411.53
2018-09-11T14:54:18.937Z,101403.01
2018-09-11T14:56:49.886Z,101404.86
2018-09-11T14:59:22.211Z,101400.19
2018-09-11T15:01:58.086Z,101398.91
2018-09-11T15:04:29.844Z,101409.94
2018-09-11T15:07:00.488Z,101417.11
2018-09-11T15:09:37.542Z,101409.47
2018-09-11T15:12:07.714Z,101414.39
2018-09-11T15:14:39.173Z,101412.94
2018-09-11T15:17:10.208Z,101420.96
2018-09-11T15:19:39.998Z,101419.61
2018-09-11T15:22:09.887Z,101421.75
2018-09-11T15:24:39.961Z,101421.92
2018-09-11T15:27:10.058Z,101428.31
2018-09-11T15:29:40.110Z,101427.13
2018-09-11T15:32:10.790Z,101430.02
2018-09-11T15:34:40.627Z,101430.02
2018-09-11T15:37:10.616Z,101431.95
2018-09-11T15:39:40.681Z,101437.27
2018-09-11T15:42:13.134Z,101424.99
2018-09-11T15:44:43.799Z,101425.39
2018-09-11T15:47:14.082Z,101424.99
2018-09-11T15:52:25.839Z,101432.16
2018-09-11T15:54:55.953Z,101428.59
2018-09-11T15:57:26.052Z,101427.42
2018-09-11T15:59:56.512Z,101437.63
2018-09-11T16:02:26.801Z,101433.91
2018-09-11T16:04:58.000Z,101430.45
2018-09-11T16:07:28.064Z,101422.21
2018-09-11T16:09:58.827Z,101422.21
2018-09-11T16:12:31.163Z,101424.14
2018-09-11T16:15:06.546Z,101428.02
2018-09-11T16:17:40.171Z,101429.38
2018-09-11T16:20:14.051Z,101426.02
2018-09-11T16:22:45.171Z,101433.95
2018-09-11T16:25:15.081Z,101431.34
2018-09-11T16:27:58.569Z,101437.23
2018-09-11T16:33:29.911Z,101438.41
2018-09-11T16:36:03.939Z,101435.02
2018-09-11T16:38:36.285Z,101440.36
2018-09-11T16:41:10.473Z,101436.86
2018-09-11T16:43:42.763Z,101434.94
2018-09-11T16:46:13.796Z,101445.89
2018-09-11T16:48:59.922Z,101440.57
2018-09-11T16:51:30.300Z,101450.99
2018-09-11T16:54:00.598Z,101453.70
2018-09-11T16:56:34.808Z,101462.25
2018-09-11T16:59:04.886Z,101462.47
2018-09-11T17:01:35.406Z,101458.22
2018-09-11T17:04:07.680Z,101482.59
2018-09-11T17:06:40.044Z,101482.59
2018-09-11T17:16:47.977Z,101478.45
2018-09-11T17:19:18.637Z,101474.27
2018-09-11T17:21:51.434Z,101479.69
2018-09-11T17:24:22.023Z,101473.77
2018-09-11T17:26:52.535Z,101482.30
2018-09-11T17:29:22.933Z,101484.73
2018-09-11T17:31:56.707Z,101485.70
2018-09-11T17:34:26.833Z,101479.78
2018-09-11T17:36:59.061Z,101483.95
2018-09-11T17:39:29.020Z,101481.53
2018-09-11T17:41:59.885Z,101460.82
2018-09-11T17:44:30.704Z,101465.09
2018-09-11T17:47:01.908Z,101472.09
2018-09-11T17:49:34.736Z,101485.73
2018-09-11T17:52:06.627Z,101488.67
2018-09-11T17:54:37.402Z,101497.69
2018-09-11T17:57:10.771Z,101495.52
2018-09-11T17:59:40.789Z,101497.72
2018-09-11T18:02:11.933Z,101506.28
2018-09-11T18:04:42.544Z,101497.72
2018-09-11T18:07:15.018Z,101498.22
2018-09-11T18:09:45.206Z,101512.05
2018-09-11T18:12:21.286Z,101502.48
2018-09-11T18:14:51.734Z,101508.75
2018-09-11T18:17:23.143Z,101513.05
2018-09-11T18:19:53.121Z,101517.94
2018-09-11T18:22:27.755Z,101518.13
2018-09-11T18:24:58.664Z,101511.06
2018-09-11T18:27:28.852Z,101515.82
2018-09-11T18:29:59.806Z,101522.55
2018-09-11T18:32:30.563Z,101524.70
2018-09-11T18:35:01.799Z,101523.25
2018-09-11T18:37:32.014Z,101521.04
2018-09-11T18:40:02.140Z,101527.67
2018-09-11T18:42:32.270Z,101524.50
2018-09-11T18:45:03.318Z,101529.22
2018-09-11T18:47:34.286Z,101544.77
2018-09-11T18:50:05.931Z,101538.14
2018-09-11T18:52:38.056Z,101535.98
2018-09-11T18:55:08.820Z,101547.20
2018-09-11T18:57:39.976Z,101546.30
2018-09-11T19:00:10.502Z,101545.50
2018-09-11T19:02:44.466Z,101560.09
2018-09-11T19:05:15.972Z,101553.53
2018-09-11T19:07:48.106Z,101550.36
2018-09-11T19:10:19.583Z,101548.61
2018-09-11T19:12:51.562Z,101554.52
2018-09-11T19:15:21.879Z,101557.69
2018-09-11T19:17:51.981Z,101558.48
2018-09-11T19:20:25.144Z,101550.97
2018-09-11T19:22:56.402Z,101561.80
2018-09-11T19:25:30.399Z,101560.90
2018-09-11T19:28:00.410Z,101553.27
2018-09-11T19:30:32.675Z,101556.33
2018-09-11T19:33:03.041Z,101568.81
2018-09-11T19:35:33.526Z,101569.77
2018-09-11T19:38:07.435Z,101565.16
2018-09-11T19:40:38.855Z,101558.48
2018-09-11T19:43:09.811Z,101569.98
2018-09-11T19:45:40.571Z,101568.63
2018-09-11T19:48:10.984Z,101583.03
2018-09-11T19:50:41.790Z,101581.09
2018-09-11T19:53:12.778Z,101577.52
2018-09-11T19:55:44.118Z,101585.80
2018-09-11T19:58:18.029Z,101577.76
2018-09-11T20:01:05.199Z,101578.73
2018-09-11T20:03:45.130Z,101571.11
2018-09-11T20:07:03.375Z,101588.51
2018-09-11T20:10:19.753Z,101584.94
2018-09-11T20:16:02.178Z,101582.23
2018-09-11T20:18:34.472Z,101591.80
2018-09-11T20:21:06.803Z,101588.91
2018-09-11T20:23:36.964Z,101593.86
2018-09-11T20:26:11.298Z,101592.87
2018-09-11T20:28:43.738Z,101585.78
2018-09-11T20:31:14.118Z,101585.59
2018-09-11T20:33:44.876Z,101594.76
2018-09-11T20:36:16.404Z,101599.01
2018-09-11T20:38:47.132Z,101592.85
2018-09-11T20:41:19.009Z,101603.37
2018-09-11T20:51:12.263Z,101598.77
2018-09-11T20:53:45.707Z,101597.11
2018-09-11T20:56:20.479Z,101595.95
2018-09-11T20:58:53.372Z,101592.45
2018-09-11T21:01:25.273Z,101592.42
2018-09-11T21:03:59.985Z,101593.27
2018-09-11T21:06:33.933Z,101587.74
2018-09-11T21:09:05.235Z,101590.75
2018-09-11T21:11:35.780Z,101598.16
2018-09-11T21:14:07.580Z,101597.91
2018-09-11T21:16:43.607Z,101600.22
2018-09-11T21:19:16.307Z,101601.88
2018-09-11T21:31:43.075Z,101592.97
2018-09-11T21:34:14.229Z,101594.41
2018-09-11T21:36:44.745Z,101595.30
2018-09-11T21:39:14.773Z,101597.20
2018-09-11T21:41:45.399Z,101596.73
2018-09-11T21:44:17.148Z,101597.06
2018-09-11T21:46:49.817Z,101591.84
2018-09-11T21:49:22.923Z,101597.02
2018-09-11T21:51:53.148Z,101608.25
2018-09-11T21:54:27.049Z,101605.09
2018-09-11T21:57:00.275Z,101610.50
2018-09-11T21:59:30.363Z,101599.61
2018-09-11T22:02:01.344Z,101598.98
2018-09-11T22:04:34.793Z,101593.44
2018-09-11T22:07:10.237Z,101588.48
2018-09-11T22:09:40.240Z,101579.38
2018-09-11T22:12:11.516Z,101586.27
2018-09-11T22:14:42.747Z,101586.54
2018-09-11T22:17:15.941Z,101582.54
2018-09-11T22:19:48.439Z,101589.97
2018-09-11T22:22:18.538Z,101593.56
2018-09-11T22:24:48.827Z,101597.53
2018-09-11T22:27:20.513Z,101599.92
2018-09-11T22:29:52.488Z,101602.53
2018-09-11T22:32:22.407Z,101605.87
2018-09-11T22:34:52.444Z,101603.70
2018-09-11T23:21:39.852Z,101596.30
2018-09-11T23:24:09.841Z,101599.85
2018-09-11T23:26:43.868Z,101603.20
2018-09-11T23:29:15.581Z,101602.47
2018-09-11T23:31:48.326Z,101608.10
2018-09-11T23:34:18.925Z,101609.62
2018-09-11T23:36:48.880Z,101607.40
2018-09-11T23:39:19.045Z,101616.84
2018-09-11T23:41:49.472Z,101613.50
2018-09-11T23:44:22.016Z,101604.39
2018-09-11T23:46:54.405Z,101606.84
2018-09-11T23:49:26.558Z,101597.31
2018-09-11T23:51:57.262Z,101605.57
2018-09-11T23:54:27.367Z,101607.46
2018-09-11T23:56:58.838Z,101603.66
2018-09-11T23:59:31.419Z,101610.41
